Burlington, Wyoming
Current Conditions -  °F | °C
As of 9:53 AM on Monday 22 Dec 2014 (Local Time) from KGEY Reporting Station
Overcast Overcast  
Wind Chill: 24°   Ceiling: 9000
Heat Index: 33°   Visibility: 10mi
Dew Point: 30°   Wind: 12mph
Humidity: 89%   Direction: 310°NW
Pressure: 29.79"   Gusts: NA
Location:  44.45°N, 108.43°W
Report Text: KGEY 221653Z AUTO 31010KT 10SM OVC090 01/M01 A2979 RMK AO2 PK WND 34026/1623 SLP115 T00061011
Loading
Personal Weather Stations






























Interactive Weather Map New forecast layout! Learn more

10-Day Weather Forecast

Advertisements
Track Severe Weather on mobile